Westwood Victoria — C6SI6 — position and weather

sailwx.info

Track history (hours):
 
Tides and Currents Weather Stations Pressure Air Temp Water Temp Dewpoint Dewpoint Depression Visibility Wind Speed Wind Dir Waves Ship Positions

Westwood Victoria

Last reported at 2018-Feb-19 19:00 UTC. Time now 2018-Feb-19 20:10 UTC.
Position N 46°18' E 153°18'.

Type: Other ship. MMSI: 311351000.

Wind from 330 at 6 knots

Barometer 1010.0 mb
Air temperature -5.2 ° C
Dewpoint -10.9 ° C

Date/timePositionNaut miles runAvg speedWind from/ knotsBaromVisibWave heightAir tempDewpointWater temp
2018-Feb-19 19:00N 46°18' E 153°18'2020.5 330 / 61010.0 -5.2-10.9
2018-Feb-19 18:00N 46°06' E 152°54'1514.6 290 / 91010.1 -5.1-10.5
2018-Feb-19 17:00N 45°54' E 152°42'1413.9 310 / 91010.5 -5.2-10.6
2018-Feb-19 16:00N 45°48' E 152°24'1514.6 360 / 81010.4 -5.3-10.7
2018-Feb-19 15:00N 45°36' E 152°12'1414.0 020 / 91010.5 -5.2-10.4
2018-Feb-19 14:00N 45°30' E 151°54'1717.4 010 / 121011.1 -5.0-9.6
2018-Feb-19 13:00N 45°18' E 151°36'1514.7 350 / 101011.6 -4.8-10.0
2018-Feb-19 12:00N 45°06' E 151°24'1717.5 020 / 141011.1 -4.5-8.9
2018-Feb-19 11:00N 44°54' E 151°06'1010.4 030 / 161010.9 -4.4-7.9
2018-Feb-19 10:00N 44°48' E 150°54'1414.1 360 / 151011.2 -4.6-6.8
2018-Feb-19 09:00N 44°42' E 150°36'1817.6 350 / 131011.5 -4.1-7.0
2018-Feb-19 08:00N 44°30' E 150°18'1514.7 320 / 131011.4 -4.2-7.8
2018-Feb-19 07:00N 44°18' E 150°06'1414.2 280 / 131011.7 -4.8-6.6
2018-Feb-19 06:00N 44°12' E 149°48'2222.2 270 / 131011.8 -5.1-7.8
2018-Feb-19 05:00N 43°54' E 149°30'1110.5 270 / 121012.2 -5.5-9.0
2018-Feb-19 04:00N 43°48' E 149°18'2121.1 290 / 101012.8 -5.9-12.3
2018-Feb-19 03:00N 43°36' E 148°54'1514.8 270 / 121013.7 -6.2-11.8
2018-Feb-19 02:00N 43°24' E 148°42'1110.6 280 / 91014.7 -6.8-14.3
2018-Feb-19 01:00N 43°18' E 148°30'1817.8 260 / 131015.3 -6.9-13.5
2018-Feb-19 00:00N 43°06' E 148°12'1817.8 340 / 81015.9 -7.3-11.2
2018-Feb-18 23:00N 42°54' E 147°54'1110.6 270 / 131016.1 -6.7-13.2
2018-Feb-18 22:00N 42°48' E 147°42'1514.5 300 / 131016.1 -6.6-12.8
2018-Feb-18 21:00N 42°42' E 147°24'1110.7 280 / 131015.8 -6.3-12.2
2018-Feb-18 20:00N 42°36' E 147°12'1514.6 290 / 121015.7 -6.1-12.4
2018-Feb-18 19:00N 42°30' E 146°54'1313.3 320 / 121015.8 -6.0-12.3
2018-Feb-18 18:00N 42°30' E 146°36'1514.6 300 / 121015.7 -6.0-12.0
2018-Feb-18 17:00N 42°24' E 146°18'1110.7 320 / 121016.2 -5.9-11.2
2018-Feb-18 16:00N 42°18' E 146°06'1514.6 320 / 151016.0 -5.7-12.4
2018-Feb-18 15:00N 42°12' E 145°48'1110.7 340 / 151016.1 -5.8-13.6
2018-Feb-18 14:00N 42°06' E 145°36'1514.7 340 / 141016.0 -5.4-12.7
2018-Feb-18 13:00N 42°00' E 145°18'1110.8 360 / 201015.8 -5.0-12.1
2018-Feb-18 12:00N 41°54' E 145°06'9 8.9 360 / 231015.4 -5.0-12.4
2018-Feb-18 11:00N 41°54' E 144°54'1514.7 360 / 231015.0 -4.7-12.6
2018-Feb-18 10:00N 41°48' E 144°36'1514.7 360 / 181014.5 -3.9-11.4
2018-Feb-18 09:00N 41°42' E 144°18'1514.7 350 / 151013.8 -3.0-11.6
2018-Feb-18 08:00N 41°36' E 144°00'1110.8 350 / 141013.0 -3.0-12.7
2018-Feb-18 07:00N 41°30' E 143°48'1514.8 360 / 121012.3 -2.4-11.2
2018-Feb-18 06:00N 41°24' E 143°30'1514.8 290 / 171011.8 -1.8-11.4
2018-Feb-18 05:00N 41°18' E 143°12'8 7.5 310 / 161011.7 -1.3-9.4
2018-Feb-18 04:00N 41°12' E 143°06'2020.1 330 / 241011.6 -1.7-9.5
2018-Feb-18 03:00N 40°54' E 142°54'6 6.0 330 / 241011.5 -2.0-8.3
2018-Feb-18 02:00N 40°48' E 142°54'6 6.0 330 / 251011.6 -1.6-6.9
2018-Feb-18 01:00N 40°42' E 142°54'1312.8 340 / 271011.3 -1.4-6.5
2018-Feb-18 00:00N 40°30' E 142°48'8 7.5 340 / 301011.0 -1.6-5.6
2018-Feb-17 23:00N 40°24' E 142°42'6 6.0 340 / 291009.9 -1.5-4.7
2018-Feb-17 22:00N 40°18' E 142°42'6 6.0 340 / 311009.2 -1.3-4.2
2018-Feb-17 21:00N 40°12' E 142°42'8 7.6 330 / 331008.3 -0.2-6.1
2018-Feb-17 20:00N 40°06' E 142°36'6 6.0 340 / 371006.9 -0.5-5.8
2018-Feb-17 19:00N 40°00' E 142°36'19 9.3 330 / 341005.3 -0.1-5.0
2018-Feb-17 17:00N 39°42' E 142°30'1312.9 280 / 191003.3 0.2-3.6
2018-Feb-17 16:00N 39°30' E 142°24'1918.6 260 / 151002.8 0.3-6.6
2018-Feb-17 15:00N 39°12' E 142°18'1918.6 240 / 161003.0 -0.1-7.1
2018-Feb-17 14:00N 38°54' E 142°12'1312.9 250 / 161005.5 -1.5-5.1
2018-Feb-17 13:00N 38°42' E 142°06'1312.9 240 / 141006.4 -1.4-6.0
2018-Feb-17 12:00N 38°30' E 142°00'1312.9 260 / 151006.9 -1.3-6.9
2018-Feb-17 11:00N 38°18' E 141°54'1818.0 290 / 231007.0 -0.8-7.6
2018-Feb-17 10:00N 38°00' E 141°54'1312.9 320 / 271006.4 -0.6-4.9
2018-Feb-17 09:00N 37°48' E 141°48'1312.9 320 / 231006.1 0.9-4.8
2018-Feb-17 08:00N 37°36' E 141°42'1312.9 320 / 221004.9 2.0-3.5
2018-Feb-17 07:00N 37°24' E 141°36'1212.0 320 / 291003.9 3.4-5.0
2018-Feb-17 06:00N 37°12' E 141°36'1918.6 330 / 221003.1 4.3-3.8
2018-Feb-17 05:00N 36°54' E 141°30'1312.9 350 / 281002.0 4.9-0.2
2018-Feb-17 04:00N 36°42' E 141°24'1918.6 220 / 101002.3 6.9 3.0
2018-Feb-17 03:00N 36°24' E 141°18'1312.9 230 / 61003.4 6.8 3.0
2018-Feb-17 02:00N 36°12' E 141°12'1918.6 220 / 41004.8 7.4 3.3
2018-Feb-17 01:00N 35°54' E 141°06'1212.0 170 / 21005.4 7.6 3.9
2018-Feb-17 00:00N 35°42' E 141°06'2020.5 040 / 201005.4 7.8 4.8
2018-Feb-16 23:00N 35°24' E 140°54'1515.5 030 / 61005.7 8.4 4.7
2018-Feb-16 22:00N 35°12' E 140°42'1615.5 360 / 121005.6 8.1 6.7
2018-Feb-16 21:00N 35°00' E 140°30'426.4 340 / 101005.4 7.1 5.8
2018-Feb-16 20:51N 35°01' E 140°26'815.9
2018-Feb-16 20:19N 34°58' E 140°17'515.6
2018-Feb-16 20:00N 34°55' E 140°11'1100.4
2018-Feb-16 20:00N 34°54' E 140°12'1016.5 010 / 91005.5 7.8 5.5
2018-Feb-16 19:24N 34°50' E 140°01'615.1
2018-Feb-16 19:00N 34°48' E 139°54'235.9 320 / 121006.1 8.3 5.9
2018-Feb-16 18:56N 34°49' E 139°52'715.3
2018-Feb-16 18:26N 34°52' E 139°43'715.5
2018-Feb-16 18:01N 34°58' E 139°41'4241.2
2018-Feb-16 18:00N 34°54' E 139°42'1224.2 010 / 171006.6 7.4 4.5
2018-Feb-16 17:31N 35°06' E 139°43'713.9
2018-Feb-16 17:00N 35°12' E 139°46'2102.1
2018-Feb-16 17:00N 35°12' E 139°48'714.4 010 / 141008.4 6.8 3.1
2018-Feb-16 16:30N 35°18' E 139°44'612.6
2018-Feb-16 16:00N 35°24' E 139°43'170.8
2018-Feb-16 16:00N 35°24' E 139°42'817.1 020 / 111009.2 6.6 2.5
2018-Feb-16 15:30N 35°29' E 139°50'611.8
2018-Feb-16 15:00N 35°35' E 139°48'184.0
2018-Feb-16 15:00N 35°36' E 139°48'1 2.2 350 / 91010.1 6.3 1.2
2018-Feb-16 14:30N 35°37' E 139°47'0 0.0
2018-Feb-16 13:45N 35°37' E 139°47'0 0.0
2018-Feb-16 13:15N 35°37' E 139°47'1 4.1
2018-Feb-16 13:00N 35°36' E 139°48'1 3.1 050 / 31011.6 6.9 1.3
2018-Feb-16 12:39N 35°37' E 139°47'0 0.0
2018-Feb-16 12:27N 35°37' E 139°47'1 2.3
2018-Feb-16 12:00N 35°36' E 139°48'1 4.4 050 / 71012.0 6.7 1.3
2018-Feb-16 11:45N 35°37' E 139°47'0 0.0
2018-Feb-16 11:27N 35°37' E 139°47'1 2.3
2018-Feb-16 11:00N 35°36' E 139°48'127.8 070 / 71012.6 7.0 2.0
2018-Feb-16 10:57N 35°37' E 139°47'0 0.0
2018-Feb-16 10:27N 35°37' E 139°47'0 0.0
2018-Feb-16 10:00N 35°37' E 139°47'1238.0
2018-Feb-16 10:00N 35°36' E 139°48'1 1.7 080 / 61013.0 7.2 2.2
2018-Feb-16 09:30N 35°36' E 139°47'0 0.0
2018-Feb-16 09:00N 35°36' E 139°47'1112.4
2018-Feb-16 09:00N 35°36' E 139°48'1 1.2 110 / 71013.5 7.4 2.2
2018-Feb-16 08:18N 35°36' E 139°47'0 0.0
2018-Feb-16 08:00N 35°36' E 139°47'1275.8
2018-Feb-16 08:00N 35°36' E 139°48'0 0.0 100 / 61013.5 7.6 1.9
2018-Feb-16 07:00N 35°36' E 139°48'1 1.3 120 / 61013.6 7.8 1.2
2018-Feb-16 06:22N 35°36' E 139°47'1 2.3
2018-Feb-16 06:00N 35°36' E 139°48'130.0 120 / 81014.1 8.0 1.1
2018-Feb-16 05:58N 35°36' E 139°47'0 0.0
2018-Feb-16 05:28N 35°36' E 139°47'1 1.8
2018-Feb-16 05:00N 35°36' E 139°48'111.1 130 / 61014.5 8.5-2.1
2018-Feb-16 04:55N 35°36' E 139°47'0 0.0
2018-Feb-16 04:28N 35°36' E 139°47'1 1.8
2018-Feb-16 04:00N 35°36' E 139°48'130.3 070 / 31015.2 7.2-5.3
2018-Feb-16 03:58N 35°36' E 139°47'0 0.0
2018-Feb-16 03:22N 35°36' E 139°47'1 2.3
2018-Feb-16 03:00N 35°36' E 139°48'110.4 070 / 41016.4 6.6-6.2
2018-Feb-16 02:55N 35°36' E 139°47'1 2.4
2018-Feb-16 02:30N 35°35' E 139°47'610.9
2018-Feb-16 02:00N 35°31' E 139°52'2198.7
2018-Feb-16 02:00N 35°30' E 139°54'613.1 060 / 91017.2 5.0-5.3
2018-Feb-16 01:30N 35°26' E 139°48'713.4
2018-Feb-16 01:00N 35°20' E 139°44'3166.5
2018-Feb-16 01:00N 35°18' E 139°42'611.6 060 / 121017.5 5.2-4.3
2018-Feb-16 00:30N 35°14' E 139°47'510.8
2018-Feb-16 00:00N 35°09' E 139°47'3217.9
2018-Feb-16 00:00N 35°06' E 139°48'510.0 030 / 291016.7 5.5-5.3
2018-Feb-15 23:31N 35°02' E 139°44'916.5
2018-Feb-15 23:00N 34°54' E 139°42'511.7 060 / 201016.1 6.3-2.4
2018-Feb-15 22:34N 34°50' E 139°38'113.7
2018-Feb-15 22:30N 34°49' E 139°38'1019.1
2018-Feb-15 22:00N 34°42' E 139°30'1 6.2 060 / 161015.9 7.3-2.1
2018-Feb-15 21:51N 34°43' E 139°31'514.5
2018-Feb-15 21:30N 34°39' E 139°27'815.3
2018-Feb-15 21:01N 34°35' E 139°19'154.2
2018-Feb-15 21:00N 34°36' E 139°18'815.9 080 / 161015.0 8.5 1.8
2018-Feb-15 20:30N 34°32' E 139°10'815.2
2018-Feb-15 20:00N 34°30' E 139°01'158.5
2018-Feb-15 20:00N 34°30' E 139°00'714.0 040 / 191014.6 8.9 3.8
2018-Feb-15 19:30N 34°30' E 138°52'714.4
2018-Feb-15 19:00N 34°31' E 138°43'2353.0
2018-Feb-15 19:00N 34°30' E 138°42'917.8 060 / 191014.4 8.8 2.9
2018-Feb-15 18:30N 34°38' E 138°39'815.2
2018-Feb-15 18:00N 34°46' E 138°38'3161.1
2018-Feb-15 18:00N 34°48' E 138°36'611.6 130 / 141013.8 9.2 0.1
2018-Feb-15 17:30N 34°53' E 138°38'714.6
2018-Feb-15 17:01N 35°00' E 138°35'136.0
2018-Feb-15 17:00N 35°00' E 138°36'5 9.4 070 / 231014.1 9.1 2.1
2018-Feb-15 16:30N 35°02' E 138°31'2 3.3
2018-Feb-15 16:00N 35°00' E 138°30'3179.1 090 / 221014.0 9.6 2.6
2018-Feb-15 15:59N 35°02' E 138°31'0 0.0
2018-Feb-15 15:29N 35°02' E 138°31'3 5.5
2018-Feb-15 15:00N 35°00' E 138°30'3197.4 090 / 231013.3 10.5 2.9
2018-Feb-15 14:59N 35°02' E 138°31'0 0.0
2018-Feb-15 14:29N 35°02' E 138°31'3 5.5
2018-Feb-15 14:00N 35°00' E 138°30'3197.4 010 / 61013.1 10.5-5.0
2018-Feb-15 13:59N 35°02' E 138°31'0 0.0
2018-Feb-15 13:29N 35°02' E 138°31'3 5.5
2018-Feb-15 13:00N 35°00' E 138°30'3240.1 310 / 31012.8 11.1-8.2
2018-Feb-15 12:59N 35°02' E 138°31'0 0.1
2018-Feb-15 12:29N 35°02' E 138°31'0 0.0
2018-Feb-15 12:00N 35°02' E 138°31'3166.8
2018-Feb-15 12:00N 35°00' E 138°30'2 3.7 270 / 31012.0 12.8-7.8
2018-Feb-15 11:30N 35°02' E 138°31'2 4.3
2018-Feb-15 11:00N 35°02' E 138°34'3223.4
2018-Feb-15 11:00N 35°00' E 138°36'3 5.5 240 / 181011.1 13.1-3.7
2018-Feb-15 10:30N 35°02' E 138°35'2 3.0
2018-Feb-15 10:00N 35°03' E 138°36'3228.9
2018-Feb-15 10:00N 35°00' E 138°36'4 7.4 240 / 231010.4 13.7-3.4
2018-Feb-15 09:30N 35°03' E 138°37'1 1.3
2018-Feb-15 09:00N 35°03' E 138°37'3191.6
2018-Feb-15 09:00N 35°00' E 138°36'2 4.5 230 / 211010.1 13.8-1.4
2018-Feb-15 08:30N 35°01' E 138°38'611.3
2018-Feb-15 08:00N 34°56' E 138°37'2157.5
2018-Feb-15 08:00N 34°54' E 138°36'510.1 240 / 181011.2 13.8 1.1
2018-Feb-15 07:30N 34°49' E 138°35'714.0
2018-Feb-15 07:00N 34°43' E 138°31'1105.3
2018-Feb-15 07:00N 34°42' E 138°30'611.9 240 / 151011.6 13.8 3.8
2018-Feb-15 06:29N 34°36' E 138°27'714.0
2018-Feb-15 06:00N 34°32' E 138°22'3178.0
2018-Feb-15 06:00N 34°30' E 138°24'1514.8 290 / 281012.4 13.1 5.0
2018-Feb-15 05:00N 34°30' E 138°06'1514.8 290 / 261013.2 12.5 5.6
2018-Feb-15 04:00N 34°30' E 137°48'1514.8 300 / 231014.3 11.7 5.2
2018-Feb-15 03:00N 34°30' E 137°30'422.5 310 / 191015.9 10.8 4.5
2018-Feb-15 02:50N 34°28' E 137°26'514.2
2018-Feb-15 02:31N 34°28' E 137°21'713.9
2018-Feb-15 02:00N 34°29' E 137°12'1107.6
2018-Feb-15 02:00N 34°30' E 137°12'912.5 300 / 131017.6 9.0 3.8
2018-Feb-15 01:16N 34°32' E 137°01'726.1
2018-Feb-15 01:00N 34°36' E 136°54'4492.7 350 / 71017.6 7.8 3.3
2018-Feb-15 00:59N 34°35' E 136°58'715.3
2018-Feb-15 00:30N 34°39' E 136°51'815.8
2018-Feb-15 00:00N 34°46' E 136°46'3201.2
2018-Feb-15 00:00N 34°48' E 136°48'612.3 100 / 41017.1 6.7 2.4
2018-Feb-14 23:30N 34°54' E 136°46'714.7
2018-Feb-14 23:00N 35°00' E 136°50'187.2
2018-Feb-14 23:00N 35°00' E 136°48'3 6.7 340 / 81017.4 4.8 0.3
2018-Feb-14 22:30N 35°03' E 136°50'3 6.3
2018-Feb-14 22:00N 35°00' E 136°48'3340.8 350 / 41017.4 3.4-0.1
2018-Feb-14 21:59N 35°03' E 136°50'0 0.0
2018-Feb-14 21:29N 35°03' E 136°50'3 6.5
2018-Feb-14 21:00N 35°00' E 136°48'3297.1 350 / 41017.3 3.4-0.3
2018-Feb-14 20:59N 35°03' E 136°50'0 0.0
2018-Feb-14 20:29N 35°03' E 136°50'3 6.5
2018-Feb-14 20:00N 35°00' E 136°48'3503.7 360 / 41017.3 3.7-0.3
2018-Feb-14 19:59N 35°03' E 136°50'0 0.0
2018-Feb-14 19:29N 35°03' E 136°50'3 6.5
2018-Feb-14 19:00N 35°00' E 136°48'3526.6 010 / 11017.7 3.6-0.2
2018-Feb-14 18:59N 35°03' E 136°50'0 0.0
2018-Feb-14 18:29N 35°03' E 136°50'3 6.6
2018-Feb-14 18:00N 35°00' E 136°48'3386.2 1018.5 4.5-1.1
2018-Feb-14 17:59N 35°03' E 136°50'0 0.0
2018-Feb-14 17:29N 35°03' E 136°50'3 6.6
2018-Feb-14 17:00N 35°00' E 136°48'3313.1 360 / 31018.9 4.3-1.6
2018-Feb-14 16:59N 35°03' E 136°50'0 0.0
2018-Feb-14 16:29N 35°03' E 136°50'3 6.6
2018-Feb-14 16:00N 35°00' E 136°48'3445.6 360 / 51018.7 4.4-1.8
2018-Feb-14 15:59N 35°03' E 136°50'0 0.0
2018-Feb-14 15:30N 35°03' E 136°50'0 0.0
2018-Feb-14 15:00N 35°03' E 136°50'3399.5
2018-Feb-14 15:00N 35°00' E 136°48'3 6.5 340 / 31019.1 5.2-2.1
2018-Feb-14 14:30N 35°03' E 136°50'0 0.0
2018-Feb-14 14:00N 35°03' E 136°50'3503.7
2018-Feb-14 14:00N 35°00' E 136°48'3 6.5 040 / 41018.8 6.4-3.9
2018-Feb-14 13:30N 35°03' E 136°50'0 0.0
2018-Feb-14 13:00N 35°03' E 136°50'3428.4
2018-Feb-14 13:00N 35°00' E 136°48'3 6.5 080 / 61019.1 6.9-2.7
2018-Feb-14 12:30N 35°03' E 136°50'0 0.0
2018-Feb-14 12:00N 35°03' E 136°50'3445.6
2018-Feb-14 12:00N 35°00' E 136°48'3 6.6 080 / 51020.0 8.3-4.2
2018-Feb-14 11:30N 35°03' E 136°50'0 0.0
2018-Feb-14 11:00N 35°03' E 136°50'3386.2
2018-Feb-14 11:00N 35°00' E 136°48'3 6.3 060 / 31020.0 8.8-3.8
2018-Feb-14 10:29N 35°03' E 136°50'2 3.8
2018-Feb-14 10:00N 35°01' E 136°50'2133.3
2018-Feb-14 10:00N 35°00' E 136°48'5 9.5 180 / 91020.5 9.2-3.5
2018-Feb-14 09:30N 34°56' E 136°47'5 8.9
2018-Feb-14 09:00N 34°51' E 136°47'3410.1
2018-Feb-14 09:00N 34°48' E 136°48'2 5.0 130 / 91020.0 7.9-0.7
2018-Feb-14 08:31N 34°46' E 136°48'815.4
2018-Feb-14 08:00N 34°39' E 136°54'3190.6
2018-Feb-14 08:00N 34°42' E 136°54'1019.4 080 / 61019.9 7.6-1.1
2018-Feb-14 07:30N 34°34' E 137°00'612.2
2018-Feb-14 07:00N 34°30' E 137°06'1313.0 060 / 71019.3 7.7-0.3
2018-Feb-14 06:00N 34°18' E 137°00'1313.0 240 / 131019.1 10.2 1.0
2018-Feb-14 05:00N 34°06' E 136°54'1919.1 230 / 211020.0 10.4 2.4
2018-Feb-14 04:00N 33°54' E 136°36'1615.6 220 / 151021.7 9.9 2.9
2018-Feb-14 03:00N 33°42' E 136°24'1615.6 220 / 171023.1 9.0 1.8
2018-Feb-14 02:00N 33°30' E 136°12'1616.2 210 / 101024.7 7.3 1.0
2018-Feb-14 01:00N 33°24' E 135°54'1211.7 230 / 31025.3 6.9 0.4
2018-Feb-14 00:00N 33°18' E 135°42'1616.2 090 / 61025.5 6.9-0.0
2018-Feb-13 23:00N 33°24' E 135°24'1415.9 340 / 91025.0 5.9-1.9
2018-Feb-13 22:08N 33°34' E 135°13'215.3
2018-Feb-13 22:00N 33°36' E 135°12'617.2 350 / 131025.0 4.3-2.3
2018-Feb-13 21:39N 33°39' E 135°06'215.3
2018-Feb-13 21:30N 33°40' E 135°03'715.3
2018-Feb-13 21:00N 33°46' E 134°59'4275.9
2018-Feb-13 21:00N 33°48' E 134°54'510.9 350 / 151024.9 3.9-1.1
2018-Feb-13 20:30N 33°53' E 134°55'715.0
2018-Feb-13 20:00N 34°01' E 134°55'155.8
2018-Feb-13 20:00N 34°00' E 134°54'817.2 010 / 71025.7 3.9-3.2
2018-Feb-13 19:30N 34°08' E 134°56'713.3
2018-Feb-13 19:00N 34°15' E 134°58'5314.2
2018-Feb-13 19:00N 34°18' E 134°54'613.4 030 / 31025.8 3.2-3.3
2018-Feb-13 18:30N 34°22' E 135°00'815.5
2018-Feb-13 18:00N 34°27' E 135°07'3195.1
2018-Feb-13 18:00N 34°30' E 135°06'714.8 330 / 101025.7 3.1-2.9
2018-Feb-13 17:30N 34°32' E 135°14'714.6
2018-Feb-13 17:01N 34°37' E 135°21'3156.9
2018-Feb-13 17:00N 34°36' E 135°24'2 3.4 300 / 111025.6 3.1-3.8
2018-Feb-13 16:31N 34°37' E 135°25'2 3.2
2018-Feb-13 16:00N 34°36' E 135°24'255.5 300 / 71025.3 4.6-4.4
2018-Feb-13 15:58N 34°38' E 135°25'0 0.0
2018-Feb-13 15:28N 34°38' E 135°25'2 3.6
2018-Feb-13 15:00N 34°36' E 135°24'259.6 290 / 81025.3 5.1-5.5
2018-Feb-13 14:58N 34°38' E 135°25'0 0.1
2018-Feb-13 14:28N 34°38' E 135°25'2 3.6
2018-Feb-13 14:00N 34°36' E 135°24'262.6 310 / 71025.2 4.2-6.0
2018-Feb-13 13:58N 34°38' E 135°25'0 0.0
2018-Feb-13 13:28N 34°38' E 135°25'2 3.6
2018-Feb-13 13:00N 34°36' E 135°24'260.6 320 / 71024.9 3.2-6.9
2018-Feb-13 12:58N 34°38' E 135°25'0 0.1
2018-Feb-13 12:28N 34°38' E 135°25'2 3.6
2018-Feb-13 12:00N 34°36' E 135°24'255.3 310 / 81025.0 5.3-5.9
2018-Feb-13 11:58N 34°38' E 135°25'0 0.0
2018-Feb-13 11:28N 34°38' E 135°25'2 3.6
2018-Feb-13 11:00N 34°36' E 135°24'221.8 300 / 81024.2 6.3-5.2
2018-Feb-13 10:55N 34°38' E 135°25'0 0.0
2018-Feb-13 10:28N 34°38' E 135°25'2 3.6
2018-Feb-13 10:00N 34°36' E 135°24'262.0 260 / 191023.4 5.2-3.2
2018-Feb-13 09:58N 34°38' E 135°25'0 0.1
2018-Feb-13 09:28N 34°38' E 135°25'2 3.6
2018-Feb-13 09:00N 34°36' E 135°24'260.2 300 / 111022.8 7.6-4.0
2018-Feb-13 08:58N 34°38' E 135°25'0 0.1
2018-Feb-13 08:28N 34°38' E 135°25'2 3.6
2018-Feb-13 08:00N 34°36' E 135°24'262.8 290 / 171022.0 6.9-3.0
2018-Feb-13 07:58N 34°38' E 135°25'0 0.1
2018-Feb-13 07:28N 34°38' E 135°25'2 3.6
2018-Feb-13 07:00N 34°36' E 135°24'254.6 270 / 171021.4 4.9-2.8
2018-Feb-13 06:58N 34°38' E 135°25'0 0.0
2018-Feb-13 06:28N 34°38' E 135°25'2 3.6
2018-Feb-13 06:00N 34°36' E 135°24'263.9 280 / 211020.9 4.0-4.5
2018-Feb-13 05:58N 34°38' E 135°25'0 0.0
2018-Feb-13 05:25N 34°38' E 135°25'2 4.0
2018-Feb-13 05:00N 34°36' E 135°24'256.3 280 / 221020.6 3.7-4.6
2018-Feb-13 04:58N 34°38' E 135°25'0 0.0
2018-Feb-13 04:28N 34°38' E 135°25'2 3.6
2018-Feb-13 04:00N 34°36' E 135°24'221.6 270 / 221020.9 3.2-4.8
2018-Feb-13 03:55N 34°38' E 135°25'0 0.0
2018-Feb-13 03:28N 34°38' E 135°25'2 3.6
2018-Feb-13 03:00N 34°36' E 135°24'253.4 270 / 191021.7 2.7-4.7
2018-Feb-13 02:58N 34°38' E 135°25'0 0.0
2018-Feb-13 02:28N 34°38' E 135°25'2 3.6
2018-Feb-13 02:00N 34°36' E 135°24'262.7 270 / 231021.7 2.5-5.4
2018-Feb-13 01:58N 34°38' E 135°25'0 0.1
2018-Feb-13 01:28N 34°38' E 135°25'2 3.6
2018-Feb-13 01:00N 34°36' E 135°24'261.4 280 / 231021.8 3.1-5.6
2018-Feb-13 00:58N 34°38' E 135°25'0 0.1
2018-Feb-13 00:28N 34°38' E 135°25'2 3.6
2018-Feb-13 00:00N 34°36' E 135°24'221.4 280 / 211021.3 4.3-5.3
2018-Feb-12 23:55N 34°38' E 135°25'0 0.1
2018-Feb-12 23:28N 34°38' E 135°25'2 3.6
2018-Feb-12 23:00N 34°36' E 135°24'259.0 280 / 191020.6 4.7-3.7
2018-Feb-12 22:58N 34°38' E 135°25'0 0.1
2018-Feb-12 22:28N 34°38' E 135°25'0 0.4
2018-Feb-12 22:00N 34°37' E 135°25'2102.2
2018-Feb-12 22:00N 34°36' E 135°24'2 4.8 280 / 161019.8 3.1-3.5
2018-Feb-12 21:30N 34°37' E 135°21'4 8.8
2018-Feb-12 21:00N 34°34' E 135°18'2134.4
2018-Feb-12 21:00N 34°36' E 135°18'918.5 250 / 121019.4 2.1-2.3
2018-Feb-12 20:31N 34°29' E 135°11'815.7
2018-Feb-12 20:01N 34°23' E 135°05'815.4
2018-Feb-12 19:30N 34°17' E 134°59'714.3
2018-Feb-12 19:00N 34°10' E 134°60'5420.4
2018-Feb-12 19:00N 34°12' E 134°54'918.2 210 / 71018.5 3.0-0.6
2018-Feb-12 18:31N 34°04' E 134°59'714.3
2018-Feb-12 18:00N 33°57' E 134°58'4621.6
2018-Feb-12 18:00N 33°54' E 134°54'5 9.3 330 / 241017.6 3.0-2.5
2018-Feb-12 17:30N 33°50' E 134°57'917.1
2018-Feb-12 17:00N 33°42' E 134°54'1211.7 020 / 71018.0 3.5-4.1
2018-Feb-12 16:00N 33°36' E 134°42'1615.6 240 / 131018.2 4.8-7.2
2018-Feb-12 15:00N 33°24' E 134°30'1615.6 270 / 91018.8 4.4-5.5
2018-Feb-12 14:00N 33°12' E 134°18'1616.2 250 / 141019.1 5.2-3.4
2018-Feb-12 13:00N 33°06' E 134°00'1615.7 280 / 171019.8 5.1-3.1
2018-Feb-12 12:00N 32°54' E 133°48'1616.3 270 / 161019.7 5.0-2.9
2018-Feb-12 11:00N 32°48' E 133°30'1211.7 280 / 121019.6 5.4-2.3
2018-Feb-12 10:00N 32°42' E 133°18'5 5.0 310 / 111019.4 5.4-3.1
2018-Feb-12 09:00N 32°42' E 133°12'0 0.0 310 / 71019.2 6.1-4.5
2018-Feb-12 08:00N 32°42' E 133°12'1616.3 290 / 131018.7 6.3-5.4
2018-Feb-12 07:00N 32°36' E 132°54'1515.2 300 / 201018.7 5.9-2.8
2018-Feb-12 06:00N 32°36' E 132°36'1010.1 300 / 161018.9 6.3-3.9
2018-Feb-12 05:00N 32°36' E 132°24'1615.7 290 / 141019.6 6.9-5.4
2018-Feb-12 04:00N 32°48' E 132°12'1212.9 280 / 221020.4 6.0-6.4
2018-Feb-12 03:02N 33°00' E 132°10'240.6
2018-Feb-12 03:00N 33°00' E 132°12'377.8 290 / 191021.2 4.9-5.3
2018-Feb-12 02:57N 33°01' E 132°09'1313.8
2018-Feb-12 02:00N 33°12' E 132°00'25634.7 280 / 231022.2 4.0-3.9
2018-Feb-12 01:59N 33°12' E 132°02'611.8
2018-Feb-12 01:30N 33°18' E 131°59'714.8
2018-Feb-12 01:01N 33°24' E 131°55'166.1
2018-Feb-12 01:00N 33°24' E 131°54'815.6 270 / 161022.1 2.4-3.2
2018-Feb-12 00:30N 33°31' E 131°51'815.4
2018-Feb-12 00:00N 33°38' E 131°47'2138.4
2018-Feb-12 00:00N 33°36' E 131°48'919.4 230 / 191021.5 2.1-2.2
2018-Feb-11 23:30N 33°45' E 131°43'714.7
2018-Feb-11 23:00N 33°47' E 131°35'815.1
2018-Feb-11 22:30N 33°48' E 131°26'714.9
2018-Feb-11 22:00N 33°50' E 131°17'714.6
2018-Feb-11 21:30N 33°53' E 131°09'713.9
2018-Feb-11 21:00N 33°57' E 131°02'4 8.8
2018-Feb-11 20:30N 33°57' E 130°57'4 8.8
2018-Feb-11 20:00N 33°56' E 130°52'4 7.8
2018-Feb-11 19:31N 34°00' E 130°52'5 9.5
2018-Feb-11 19:00N 34°03' E 130°47'3193.5
2018-Feb-11 19:00N 34°06' E 130°48'611.5 280 / 301020.9 3.2-5.2
2018-Feb-11 18:30N 34°06' E 130°41'713.6
2018-Feb-11 18:00N 34°11' E 130°35'186.9
2018-Feb-11 18:00N 34°12' E 130°36'714.1 280 / 281021.2 3.0-8.2
2018-Feb-11 17:30N 34°16' E 130°29'714.5
2018-Feb-11 17:00N 34°22' E 130°24'2127.6
2018-Feb-11 17:00N 34°24' E 130°24'1615.5 270 / 261020.8 2.5-10.5
2018-Feb-11 16:00N 34°36' E 130°12'5 4.9 290 / 261021.3 2.3-8.4
2018-Feb-11 15:00N 34°36' E 130°06'8 7.8 300 / 211021.1 1.6-9.7
2018-Feb-11 14:00N 34°42' E 130°00'5 4.9 310 / 111021.0 2.2-6.4
2018-Feb-11 13:00N 34°42' E 129°54'0 0.0 290 / 111020.7 1.9-4.9
2018-Feb-11 12:00N 34°42' E 129°54'0 0.0 270 / 111020.5 2.4-7.1
2018-Feb-11 11:00N 34°42' E 129°54'0 0.0 270 / 121020.5 2.6-9.2
2018-Feb-11 10:00N 34°42' E 129°54'3913.0 290 / 161020.3 3.1-10.6
2018-Feb-11 07:00N 35°00' E 129°12'8 7.8 270 / 191020.8 2.1-14.1
2018-Feb-11 06:00N 35°06' E 129°06'0 0.0 300 / 131020.7 1.6-15.5
2018-Feb-11 05:00N 35°06' E 129°06'0 0.0 270 / 101021.2 1.4-14.3
2018-Feb-11 04:00N 35°06' E 129°06'0 0.0 260 / 91022.2 0.3-10.9
2018-Feb-11 03:00N 35°06' E 129°06'0 0.0 260 / 61023.6 -0.1-10.3
2018-Feb-11 02:00N 35°06' E 129°06'0 0.0 270 / 61024.2 -0.6-11.6
2018-Feb-11 01:00N 35°06' E 129°06'0 0.0 270 / 41024.3 -1.1-11.8
2018-Feb-11 00:00N 35°06' E 129°06'0 0.0 270 / 21024.6 -2.0-12.7
2018-Feb-10 23:00N 35°06' E 129°06'0 0.0 300 / 41024.5 -2.8-12.9
2018-Feb-10 22:00N 35°06' E 129°06'0 0.0 300 / 51024.0 -3.1-13.8
2018-Feb-10 21:00N 35°06' E 129°06'0 0.0 300 / 51023.7 -2.7-13.8
2018-Feb-10 20:00N 35°06' E 129°06'0 0.0 320 / 81023.1 -2.8-15.2
2018-Feb-10 19:00N 35°06' E 129°06'0 0.0 310 / 121022.8 -2.3-15.4
2018-Feb-10 18:00N 35°06' E 129°06'0 0.0 310 / 151022.5 -1.7-15.4
2018-Feb-10 17:00N 35°06' E 129°06'0 0.0 320 / 211021.6 -0.7-17.6
2018-Feb-10 16:00N 35°06' E 129°06'6 6.0 310 / 211020.1 1.3-16.0
2018-Feb-10 15:00N 35°00' E 129°06'1211.5 300 / 191019.9 2.3-13.8
2018-Feb-10 14:00N 35°06' E 128°54'0 0.0 310 / 91018.7 6.0-10.3
2018-Feb-10 13:00N 35°06' E 128°54'0 0.0 320 / 51018.3 6.3-8.5
2018-Feb-10 12:00N 35°06' E 128°54'0 0.0 320 / 31018.0 7.0-8.2
2018-Feb-10 11:00N 35°06' E 128°54'0 0.0 320 / 41017.3 9.1-8.4
2018-Feb-10 10:00N 35°06' E 128°54'0 0.0 310 / 31016.9 9.8-8.7
2018-Feb-10 09:00N 35°06' E 128°54'0 0.0 320 / 41016.2 10.2-9.1
2018-Feb-10 08:00N 35°06' E 128°54'0 0.0 240 / 41016.1 9.9-4.7
2018-Feb-10 07:00N 35°06' E 128°54'0 0.0 300 / 81016.1 11.7-4.6
2018-Feb-10 06:00N 35°06' E 128°54'0 0.0 320 / 61016.2 10.9-5.8
2018-Feb-10 05:00N 35°06' E 128°54'0 0.0 300 / 71016.9 10.2-5.7
2018-Feb-10 04:00N 35°06' E 128°54'0 0.0 320 / 51018.2 9.5-5.1
2018-Feb-10 03:00N 35°06' E 128°54'0 0.0 310 / 61019.5 8.9-3.2
2018-Feb-10 02:00N 35°06' E 128°54'0 0.0 300 / 51020.3 7.3-1.3
2018-Feb-10 01:00N 35°06' E 128°54'0 0.0 330 / 51020.4 6.5-1.8
2018-Feb-10 00:00N 35°06' E 128°54'0 0.0 330 / 71020.0 6.9-1.6
2018-Feb-09 23:00N 35°06' E 128°54'0 0.0 330 / 31019.9 6.5-2.1
2018-Feb-09 22:00N 35°06' E 128°54'0 0.0 320 / 21020.1 7.2-0.7
2018-Feb-09 21:00N 35°06' E 128°54'0 0.0 290 / 31020.0 7.6-0.5
2018-Feb-09 20:00N 35°06' E 128°54'0 0.0 290 / 11020.0 8.1-0.1
2018-Feb-09 19:00N 35°06' E 128°54'   280 / 41020.6 7.9-0.5
Track history (hours):
 
Tides and Currents Weather Stations Pressure Air Temp Water Temp Dewpoint Dewpoint Depression Visibility Wind Speed Wind Dir Waves Ship Positions

Westwood Victoria

Last reported at 2018-Feb-19 19:00 UTC. Time now 2018-Feb-19 20:10 UTC.
Position N 46°18' E 153°18'.

Type: Other ship. MMSI: 311351000.

Wind from 330 at 6 knots

Barometer 1010.0 mb
Air temperature -5.2 ° C
Dewpoint -10.9 ° C

Date/timePositionNaut miles runAvg speedWind from/ knotsBaromVisibWave heightAir tempDewpointWater temp
2018-Feb-19 19:00N 46°18' E 153°18'2020.5 330 / 61010.0 -5.2-10.9
2018-Feb-19 18:00N 46°06' E 152°54'1514.6 290 / 91010.1 -5.1-10.5
2018-Feb-19 17:00N 45°54' E 152°42'1413.9 310 / 91010.5 -5.2-10.6
2018-Feb-19 16:00N 45°48' E 152°24'1514.6 360 / 81010.4 -5.3-10.7
2018-Feb-19 15:00N 45°36' E 152°12'1414.0 020 / 91010.5 -5.2-10.4
2018-Feb-19 14:00N 45°30' E 151°54'1717.4 010 / 121011.1 -5.0-9.6
2018-Feb-19 13:00N 45°18' E 151°36'1514.7 350 / 101011.6 -4.8-10.0
2018-Feb-19 12:00N 45°06' E 151°24'1717.5 020 / 141011.1 -4.5-8.9
2018-Feb-19 11:00N 44°54' E 151°06'1010.4 030 / 161010.9 -4.4-7.9
2018-Feb-19 10:00N 44°48' E 150°54'1414.1 360 / 151011.2 -4.6-6.8
2018-Feb-19 09:00N 44°42' E 150°36'1817.6 350 / 131011.5 -4.1-7.0
2018-Feb-19 08:00N 44°30' E 150°18'1514.7 320 / 131011.4 -4.2-7.8
2018-Feb-19 07:00N 44°18' E 150°06'1414.2 280 / 131011.7 -4.8-6.6
2018-Feb-19 06:00N 44°12' E 149°48'2222.2 270 / 131011.8 -5.1-7.8
2018-Feb-19 05:00N 43°54' E 149°30'1110.5 270 / 121012.2 -5.5-9.0
2018-Feb-19 04:00N 43°48' E 149°18'2121.1 290 / 101012.8 -5.9-12.3
2018-Feb-19 03:00N 43°36' E 148°54'1514.8 270 / 121013.7 -6.2-11.8
2018-Feb-19 02:00N 43°24' E 148°42'1110.6 280 / 91014.7 -6.8-14.3
2018-Feb-19 01:00N 43°18' E 148°30'1817.8 260 / 131015.3 -6.9-13.5
2018-Feb-19 00:00N 43°06' E 148°12'1817.8 340 / 81015.9 -7.3-11.2
2018-Feb-18 23:00N 42°54' E 147°54'1110.6 270 / 131016.1 -6.7-13.2
2018-Feb-18 22:00N 42°48' E 147°42'1514.5 300 / 131016.1 -6.6-12.8
2018-Feb-18 21:00N 42°42' E 147°24'1110.7 280 / 131015.8 -6.3-12.2
2018-Feb-18 20:00N 42°36' E 147°12'1514.6 290 / 121015.7 -6.1-12.4
2018-Feb-18 19:00N 42°30' E 146°54'1313.3 320 / 121015.8 -6.0-12.3
2018-Feb-18 18:00N 42°30' E 146°36'1514.6 300 / 121015.7 -6.0-12.0
2018-Feb-18 17:00N 42°24' E 146°18'1110.7 320 / 121016.2 -5.9-11.2
2018-Feb-18 16:00N 42°18' E 146°06'1514.6 320 / 151016.0 -5.7-12.4
2018-Feb-18 15:00N 42°12' E 145°48'1110.7 340 / 151016.1 -5.8-13.6
2018-Feb-18 14:00N 42°06' E 145°36'1514.7 340 / 141016.0 -5.4-12.7
2018-Feb-18 13:00N 42°00' E 145°18'1110.8 360 / 201015.8 -5.0-12.1
2018-Feb-18 12:00N 41°54' E 145°06'9 8.9 360 / 231015.4 -5.0-12.4
2018-Feb-18 11:00N 41°54' E 144°54'1514.7 360 / 231015.0 -4.7-12.6
2018-Feb-18 10:00N 41°48' E 144°36'1514.7 360 / 181014.5 -3.9-11.4
2018-Feb-18 09:00N 41°42' E 144°18'1514.7 350 / 151013.8 -3.0-11.6
2018-Feb-18 08:00N 41°36' E 144°00'1110.8 350 / 141013.0 -3.0-12.7
2018-Feb-18 07:00N 41°30' E 143°48'1514.8 360 / 121012.3 -2.4-11.2
2018-Feb-18 06:00N 41°24' E 143°30'1514.8 290 / 171011.8 -1.8-11.4
2018-Feb-18 05:00N 41°18' E 143°12'8 7.5 310 / 161011.7 -1.3-9.4
2018-Feb-18 04:00N 41°12' E 143°06'2020.1 330 / 241011.6 -1.7-9.5
2018-Feb-18 03:00N 40°54' E 142°54'6 6.0 330 / 241011.5 -2.0-8.3
2018-Feb-18 02:00N 40°48' E 142°54'6 6.0 330 / 251011.6 -1.6-6.9
2018-Feb-18 01:00N 40°42' E 142°54'1312.8 340 / 271011.3 -1.4-6.5
2018-Feb-18 00:00N 40°30' E 142°48'8 7.5 340 / 301011.0 -1.6-5.6
2018-Feb-17 23:00N 40°24' E 142°42'6 6.0 340 / 291009.9 -1.5-4.7
2018-Feb-17 22:00N 40°18' E 142°42'6 6.0 340 / 311009.2 -1.3-4.2
2018-Feb-17 21:00N 40°12' E 142°42'8 7.6 330 / 331008.3 -0.2-6.1
2018-Feb-17 20:00N 40°06' E 142°36'6 6.0 340 / 371006.9 -0.5-5.8
2018-Feb-17 19:00N 40°00' E 142°36'19 9.3 330 / 341005.3 -0.1-5.0
2018-Feb-17 17:00N 39°42' E 142°30'1312.9 280 / 191003.3 0.2-3.6
2018-Feb-17 16:00N 39°30' E 142°24'1918.6 260 / 151002.8 0.3-6.6
2018-Feb-17 15:00N 39°12' E 142°18'1918.6 240 / 161003.0 -0.1-7.1
2018-Feb-17 14:00N 38°54' E 142°12'1312.9 250 / 161005.5 -1.5-5.1
2018-Feb-17 13:00N 38°42' E 142°06'1312.9 240 / 141006.4 -1.4-6.0
2018-Feb-17 12:00N 38°30' E 142°00'1312.9 260 / 151006.9 -1.3-6.9
2018-Feb-17 11:00N 38°18' E 141°54'1818.0 290 / 231007.0 -0.8-7.6
2018-Feb-17 10:00N 38°00' E 141°54'1312.9 320 / 271006.4 -0.6-4.9
2018-Feb-17 09:00N 37°48' E 141°48'1312.9 320 / 231006.1 0.9-4.8
2018-Feb-17 08:00N 37°36' E 141°42'1312.9 320 / 221004.9 2.0-3.5
2018-Feb-17 07:00N 37°24' E 141°36'1212.0 320 / 291003.9 3.4-5.0
2018-Feb-17 06:00N 37°12' E 141°36'1918.6 330 / 221003.1 4.3-3.8
2018-Feb-17 05:00N 36°54' E 141°30'1312.9 350 / 281002.0 4.9-0.2
2018-Feb-17 04:00N 36°42' E 141°24'1918.6 220 / 101002.3 6.9 3.0
2018-Feb-17 03:00N 36°24' E 141°18'1312.9 230 / 61003.4 6.8 3.0
2018-Feb-17 02:00N 36°12' E 141°12'1918.6 220 / 41004.8 7.4 3.3
2018-Feb-17 01:00N 35°54' E 141°06'1212.0 170 / 21005.4 7.6 3.9
2018-Feb-17 00:00N 35°42' E 141°06'2020.5 040 / 201005.4 7.8 4.8
2018-Feb-16 23:00N 35°24' E 140°54'1515.5 030 / 61005.7 8.4 4.7
2018-Feb-16 22:00N 35°12' E 140°42'1615.5 360 / 121005.6 8.1 6.7
2018-Feb-16 21:00N 35°00' E 140°30'426.4 340 / 101005.4 7.1 5.8
2018-Feb-16 20:51N 35°01' E 140°26'815.9
2018-Feb-16 20:19N 34°58' E 140°17'515.6
2018-Feb-16 20:00N 34°55' E 140°11'1100.4
2018-Feb-16 20:00N 34°54' E 140°12'1016.5 010 / 91005.5 7.8 5.5
2018-Feb-16 19:24N 34°50' E 140°01'615.1
2018-Feb-16 19:00N 34°48' E 139°54'235.9 320 / 121006.1 8.3 5.9
2018-Feb-16 18:56N 34°49' E 139°52'715.3
2018-Feb-16 18:26N 34°52' E 139°43'715.5
2018-Feb-16 18:01N 34°58' E 139°41'4241.2
2018-Feb-16 18:00N 34°54' E 139°42'1224.2 010 / 171006.6 7.4 4.5
2018-Feb-16 17:31N 35°06' E 139°43'713.9
2018-Feb-16 17:00N 35°12' E 139°46'2102.1
2018-Feb-16 17:00N 35°12' E 139°48'714.4 010 / 141008.4 6.8 3.1
2018-Feb-16 16:30N 35°18' E 139°44'612.6
2018-Feb-16 16:00N 35°24' E 139°43'170.8
2018-Feb-16 16:00N 35°24' E 139°42'817.1 020 / 111009.2 6.6 2.5
2018-Feb-16 15:30N 35°29' E 139°50'611.8
2018-Feb-16 15:00N 35°35' E 139°48'184.0
2018-Feb-16 15:00N 35°36' E 139°48'1 2.2 350 / 91010.1 6.3 1.2
2018-Feb-16 14:30N 35°37' E 139°47'0 0.0
2018-Feb-16 13:45N 35°37' E 139°47'0 0.0
2018-Feb-16 13:15N 35°37' E 139°47'1 4.1
2018-Feb-16 13:00N 35°36' E 139°48'1 3.1 050 / 31011.6 6.9 1.3
2018-Feb-16 12:39N 35°37' E 139°47'0 0.0
2018-Feb-16 12:27N 35°37' E 139°47'1 2.3
2018-Feb-16 12:00N 35°36' E 139°48'1 4.4 050 / 71012.0 6.7 1.3
2018-Feb-16 11:45N 35°37' E 139°47'0 0.0
2018-Feb-16 11:27N 35°37' E 139°47'1 2.3
2018-Feb-16 11:00N 35°36' E 139°48'127.8 070 / 71012.6 7.0 2.0
2018-Feb-16 10:57N 35°37' E 139°47'0 0.0
2018-Feb-16 10:27N 35°37' E 139°47'0 0.0
2018-Feb-16 10:00N 35°37' E 139°47'1238.0
2018-Feb-16 10:00N 35°36' E 139°48'1 1.7 080 / 61013.0 7.2 2.2
2018-Feb-16 09:30N 35°36' E 139°47'0 0.0
2018-Feb-16 09:00N 35°36' E 139°47'1112.4
2018-Feb-16 09:00N 35°36' E 139°48'1 1.2 110 / 71013.5 7.4 2.2
2018-Feb-16 08:18N 35°36' E 139°47'0 0.0
2018-Feb-16 08:00N 35°36' E 139°47'1275.8
2018-Feb-16 08:00N 35°36' E 139°48'0 0.0 100 / 61013.5 7.6 1.9
2018-Feb-16 07:00N 35°36' E 139°48'1 1.3 120 / 61013.6 7.8 1.2
2018-Feb-16 06:22N 35°36' E 139°47'1 2.3
2018-Feb-16 06:00N 35°36' E 139°48'130.0 120 / 81014.1 8.0 1.1
2018-Feb-16 05:58N 35°36' E 139°47'0 0.0
2018-Feb-16 05:28N 35°36' E 139°47'1 1.8
2018-Feb-16 05:00N 35°36' E 139°48'111.1 130 / 61014.5 8.5-2.1
2018-Feb-16 04:55N 35°36' E 139°47'0 0.0
2018-Feb-16 04:28N 35°36' E 139°47'1 1.8
2018-Feb-16 04:00N 35°36' E 139°48'130.3 070 / 31015.2 7.2-5.3
2018-Feb-16 03:58N 35°36' E 139°47'0 0.0
2018-Feb-16 03:22N 35°36' E 139°47'1 2.3
2018-Feb-16 03:00N 35°36' E 139°48'110.4 070 / 41016.4 6.6-6.2
2018-Feb-16 02:55N 35°36' E 139°47'1 2.4
2018-Feb-16 02:30N 35°35' E 139°47'610.9
2018-Feb-16 02:00N 35°31' E 139°52'2198.7
2018-Feb-16 02:00N 35°30' E 139°54'613.1 060 / 91017.2 5.0-5.3
2018-Feb-16 01:30N 35°26' E 139°48'713.4
2018-Feb-16 01:00N 35°20' E 139°44'3166.5
2018-Feb-16 01:00N 35°18' E 139°42'611.6 060 / 121017.5 5.2-4.3
2018-Feb-16 00:30N 35°14' E 139°47'510.8
2018-Feb-16 00:00N 35°09' E 139°47'3217.9
2018-Feb-16 00:00N 35°06' E 139°48'510.0 030 / 291016.7 5.5-5.3
2018-Feb-15 23:31N 35°02' E 139°44'916.5
2018-Feb-15 23:00N 34°54' E 139°42'511.7 060 / 201016.1 6.3-2.4
2018-Feb-15 22:34N 34°50' E 139°38'113.7
2018-Feb-15 22:30N 34°49' E 139°38'1019.1
2018-Feb-15 22:00N 34°42' E 139°30'1 6.2 060 / 161015.9 7.3-2.1
2018-Feb-15 21:51N 34°43' E 139°31'514.5
2018-Feb-15 21:30N 34°39' E 139°27'815.3
2018-Feb-15 21:01N 34°35' E 139°19'154.2
2018-Feb-15 21:00N 34°36' E 139°18'815.9 080 / 161015.0 8.5 1.8
2018-Feb-15 20:30N 34°32' E 139°10'815.2
2018-Feb-15 20:00N 34°30' E 139°01'158.5
2018-Feb-15 20:00N 34°30' E 139°00'714.0 040 / 191014.6 8.9 3.8
2018-Feb-15 19:30N 34°30' E 138°52'714.4
2018-Feb-15 19:00N 34°31' E 138°43'2353.0
2018-Feb-15 19:00N 34°30' E 138°42'917.8 060 / 191014.4 8.8 2.9
2018-Feb-15 18:30N 34°38' E 138°39'815.2
2018-Feb-15 18:00N 34°46' E 138°38'3161.1
2018-Feb-15 18:00N 34°48' E 138°36'611.6 130 / 141013.8 9.2 0.1
2018-Feb-15 17:30N 34°53' E 138°38'714.6
2018-Feb-15 17:01N 35°00' E 138°35'136.0
2018-Feb-15 17:00N 35°00' E 138°36'5 9.4 070 / 231014.1 9.1 2.1
2018-Feb-15 16:30N 35°02' E 138°31'2 3.3
2018-Feb-15 16:00N 35°00' E 138°30'3179.1 090 / 221014.0 9.6 2.6
2018-Feb-15 15:59N 35°02' E 138°31'0 0.0
2018-Feb-15 15:29N 35°02' E 138°31'3 5.5
2018-Feb-15 15:00N 35°00' E 138°30'3197.4 090 / 231013.3 10.5 2.9
2018-Feb-15 14:59N 35°02' E 138°31'0 0.0
2018-Feb-15 14:29N 35°02' E 138°31'3 5.5
2018-Feb-15 14:00N 35°00' E 138°30'3197.4 010 / 61013.1 10.5-5.0
2018-Feb-15 13:59N 35°02' E 138°31'0 0.0
2018-Feb-15 13:29N 35°02' E 138°31'3 5.5
2018-Feb-15 13:00N 35°00' E 138°30'3240.1 310 / 31012.8 11.1-8.2
2018-Feb-15 12:59N 35°02' E 138°31'0 0.1
2018-Feb-15 12:29N 35°02' E 138°31'0 0.0
2018-Feb-15 12:00N 35°02' E 138°31'3166.8
2018-Feb-15 12:00N 35°00' E 138°30'2 3.7 270 / 31012.0 12.8-7.8
2018-Feb-15 11:30N 35°02' E 138°31'2 4.3
2018-Feb-15 11:00N 35°02' E 138°34'3223.4
2018-Feb-15 11:00N 35°00' E 138°36'3 5.5 240 / 181011.1 13.1-3.7
2018-Feb-15 10:30N 35°02' E 138°35'2 3.0
2018-Feb-15 10:00N 35°03' E 138°36'3228.9
2018-Feb-15 10:00N 35°00' E 138°36'4 7.4 240 / 231010.4 13.7-3.4
2018-Feb-15 09:30N 35°03' E 138°37'1 1.3
2018-Feb-15 09:00N 35°03' E 138°37'3191.6
2018-Feb-15 09:00N 35°00' E 138°36'2 4.5 230 / 211010.1 13.8-1.4
2018-Feb-15 08:30N 35°01' E 138°38'611.3
2018-Feb-15 08:00N 34°56' E 138°37'2157.5
2018-Feb-15 08:00N 34°54' E 138°36'510.1 240 / 181011.2 13.8 1.1
2018-Feb-15 07:30N 34°49' E 138°35'714.0
2018-Feb-15 07:00N 34°43' E 138°31'1105.3
2018-Feb-15 07:00N 34°42' E 138°30'611.9 240 / 151011.6 13.8 3.8
2018-Feb-15 06:29N 34°36' E 138°27'714.0
2018-Feb-15 06:00N 34°32' E 138°22'3178.0
2018-Feb-15 06:00N 34°30' E 138°24'1514.8 290 / 281012.4 13.1 5.0
2018-Feb-15 05:00N 34°30' E 138°06'1514.8 290 / 261013.2 12.5 5.6
2018-Feb-15 04:00N 34°30' E 137°48'1514.8 300 / 231014.3 11.7 5.2
2018-Feb-15 03:00N 34°30' E 137°30'422.5 310 / 191015.9 10.8 4.5
2018-Feb-15 02:50N 34°28' E 137°26'514.2
2018-Feb-15 02:31N 34°28' E 137°21'713.9
2018-Feb-15 02:00N 34°29' E 137°12'1107.6
2018-Feb-15 02:00N 34°30' E 137°12'912.5 300 / 131017.6 9.0 3.8
2018-Feb-15 01:16N 34°32' E 137°01'726.1
2018-Feb-15 01:00N 34°36' E 136°54'4492.7 350 / 71017.6 7.8 3.3
2018-Feb-15 00:59N 34°35' E 136°58'715.3
2018-Feb-15 00:30N 34°39' E 136°51'815.8
2018-Feb-15 00:00N 34°46' E 136°46'3201.2
2018-Feb-15 00:00N 34°48' E 136°48'612.3 100 / 41017.1 6.7 2.4
2018-Feb-14 23:30N 34°54' E 136°46'714.7
2018-Feb-14 23:00N 35°00' E 136°50'187.2
2018-Feb-14 23:00N 35°00' E 136°48'3 6.7 340 / 81017.4 4.8 0.3
2018-Feb-14 22:30N 35°03' E 136°50'3 6.3
2018-Feb-14 22:00N 35°00' E 136°48'3340.8 350 / 41017.4 3.4-0.1
2018-Feb-14 21:59N 35°03' E 136°50'0 0.0
2018-Feb-14 21:29N 35°03' E 136°50'3 6.5
2018-Feb-14 21:00N 35°00' E 136°48'3297.1 350 / 41017.3 3.4-0.3
2018-Feb-14 20:59N 35°03' E 136°50'0 0.0
2018-Feb-14 20:29N 35°03' E 136°50'3 6.5
2018-Feb-14 20:00N 35°00' E 136°48'3503.7 360 / 41017.3 3.7-0.3
2018-Feb-14 19:59N 35°03' E 136°50'0 0.0
2018-Feb-14 19:29N 35°03' E 136°50'3 6.5
2018-Feb-14 19:00N 35°00' E 136°48'3526.6 010 / 11017.7 3.6-0.2
2018-Feb-14 18:59N 35°03' E 136°50'0 0.0
2018-Feb-14 18:29N 35°03' E 136°50'3 6.6
2018-Feb-14 18:00N 35°00' E 136°48'3386.2 1018.5 4.5-1.1
2018-Feb-14 17:59N 35°03' E 136°50'0 0.0
2018-Feb-14 17:29N 35°03' E 136°50'3 6.6
2018-Feb-14 17:00N 35°00' E 136°48'3313.1 360 / 31018.9 4.3-1.6
2018-Feb-14 16:59N 35°03' E 136°50'0 0.0
2018-Feb-14 16:29N 35°03' E 136°50'3 6.6
2018-Feb-14 16:00N 35°00' E 136°48'3445.6 360 / 51018.7 4.4-1.8
2018-Feb-14 15:59N 35°03' E 136°50'0 0.0
2018-Feb-14 15:30N 35°03' E 136°50'0 0.0
2018-Feb-14 15:00N 35°03' E 136°50'3399.5
2018-Feb-14 15:00N 35°00' E 136°48'3 6.5 340 / 31019.1 5.2-2.1
2018-Feb-14 14:30N 35°03' E 136°50'0 0.0
2018-Feb-14 14:00N 35°03' E 136°50'3503.7
2018-Feb-14 14:00N 35°00' E 136°48'3 6.5 040 / 41018.8 6.4-3.9
2018-Feb-14 13:30N 35°03' E 136°50'0 0.0
2018-Feb-14 13:00N 35°03' E 136°50'3428.4
2018-Feb-14 13:00N 35°00' E 136°48'3 6.5 080 / 61019.1 6.9-2.7
2018-Feb-14 12:30N 35°03' E 136°50'0 0.0
2018-Feb-14 12:00N 35°03' E 136°50'3445.6
2018-Feb-14 12:00N 35°00' E 136°48'3 6.6 080 / 51020.0 8.3-4.2
2018-Feb-14 11:30N 35°03' E 136°50'0 0.0
2018-Feb-14 11:00N 35°03' E 136°50'3386.2
2018-Feb-14 11:00N 35°00' E 136°48'3 6.3 060 / 31020.0 8.8-3.8
2018-Feb-14 10:29N 35°03' E 136°50'2 3.8
2018-Feb-14 10:00N 35°01' E 136°50'2133.3
2018-Feb-14 10:00N 35°00' E 136°48'5 9.5 180 / 91020.5 9.2-3.5
2018-Feb-14 09:30N 34°56' E 136°47'5 8.9
2018-Feb-14 09:00N 34°51' E 136°47'3410.1
2018-Feb-14 09:00N 34°48' E 136°48'2 5.0 130 / 91020.0 7.9-0.7
2018-Feb-14 08:31N 34°46' E 136°48'815.4
2018-Feb-14 08:00N 34°39' E 136°54'3190.6
2018-Feb-14 08:00N 34°42' E 136°54'1019.4 080 / 61019.9 7.6-1.1
2018-Feb-14 07:30N 34°34' E 137°00'612.2
2018-Feb-14 07:00N 34°30' E 137°06'1313.0 060 / 71019.3 7.7-0.3
2018-Feb-14 06:00N 34°18' E 137°00'1313.0 240 / 131019.1 10.2 1.0
2018-Feb-14 05:00N 34°06' E 136°54'1919.1 230 / 211020.0 10.4 2.4
2018-Feb-14 04:00N 33°54' E 136°36'1615.6 220 / 151021.7 9.9 2.9
2018-Feb-14 03:00N 33°42' E 136°24'1615.6 220 / 171023.1 9.0 1.8
2018-Feb-14 02:00N 33°30' E 136°12'1616.2 210 / 101024.7 7.3 1.0
2018-Feb-14 01:00N 33°24' E 135°54'1211.7 230 / 31025.3 6.9 0.4
2018-Feb-14 00:00N 33°18' E 135°42'1616.2 090 / 61025.5 6.9-0.0
2018-Feb-13 23:00N 33°24' E 135°24'1415.9 340 / 91025.0 5.9-1.9
2018-Feb-13 22:08N 33°34' E 135°13'215.3
2018-Feb-13 22:00N 33°36' E 135°12'617.2 350 / 131025.0 4.3-2.3
2018-Feb-13 21:39N 33°39' E 135°06'215.3
2018-Feb-13 21:30N 33°40' E 135°03'715.3
2018-Feb-13 21:00N 33°46' E 134°59'4275.9
2018-Feb-13 21:00N 33°48' E 134°54'510.9 350 / 151024.9 3.9-1.1
2018-Feb-13 20:30N 33°53' E 134°55'715.0
2018-Feb-13 20:00N 34°01' E 134°55'155.8
2018-Feb-13 20:00N 34°00' E 134°54'817.2 010 / 71025.7 3.9-3.2
2018-Feb-13 19:30N 34°08' E 134°56'713.3
2018-Feb-13 19:00N 34°15' E 134°58'5314.2
2018-Feb-13 19:00N 34°18' E 134°54'613.4 030 / 31025.8 3.2-3.3
2018-Feb-13 18:30N 34°22' E 135°00'815.5
2018-Feb-13 18:00N 34°27' E 135°07'3195.1
2018-Feb-13 18:00N 34°30' E 135°06'714.8 330 / 101025.7 3.1-2.9
2018-Feb-13 17:30N 34°32' E 135°14'714.6
2018-Feb-13 17:01N 34°37' E 135°21'3156.9
2018-Feb-13 17:00N 34°36' E 135°24'2 3.4 300 / 111025.6 3.1-3.8
2018-Feb-13 16:31N 34°37' E 135°25'2 3.2
2018-Feb-13 16:00N 34°36' E 135°24'255.5 300 / 71025.3 4.6-4.4
2018-Feb-13 15:58N 34°38' E 135°25'0 0.0
2018-Feb-13 15:28N 34°38' E 135°25'2 3.6
2018-Feb-13 15:00N 34°36' E 135°24'259.6 290 / 81025.3 5.1-5.5
2018-Feb-13 14:58N 34°38' E 135°25'0 0.1
2018-Feb-13 14:28N 34°38' E 135°25'2 3.6
2018-Feb-13 14:00N 34°36' E 135°24'262.6 310 / 71025.2 4.2-6.0
2018-Feb-13 13:58N 34°38' E 135°25'0 0.0
2018-Feb-13 13:28N 34°38' E 135°25'2 3.6
2018-Feb-13 13:00N 34°36' E 135°24'260.6 320 / 71024.9 3.2-6.9
2018-Feb-13 12:58N 34°38' E 135°25'0 0.1
2018-Feb-13 12:28N 34°38' E 135°25'2 3.6
2018-Feb-13 12:00N 34°36' E 135°24'255.3 310 / 81025.0 5.3-5.9
2018-Feb-13 11:58N 34°38' E 135°25'0 0.0
2018-Feb-13 11:28N 34°38' E 135°25'2 3.6
2018-Feb-13 11:00N 34°36' E 135°24'221.8 300 / 81024.2 6.3-5.2
2018-Feb-13 10:55N 34°38' E 135°25'0 0.0
2018-Feb-13 10:28N 34°38' E 135°25'2 3.6
2018-Feb-13 10:00N 34°36' E 135°24'262.0 260 / 191023.4 5.2-3.2
2018-Feb-13 09:58N 34°38' E 135°25'0 0.1
2018-Feb-13 09:28N 34°38' E 135°25'2 3.6
2018-Feb-13 09:00N 34°36' E 135°24'260.2 300 / 111022.8 7.6-4.0
2018-Feb-13 08:58N 34°38' E 135°25'0 0.1
2018-Feb-13 08:28N 34°38' E 135°25'2 3.6
2018-Feb-13 08:00N 34°36' E 135°24'262.8 290 / 171022.0 6.9-3.0
2018-Feb-13 07:58N 34°38' E 135°25'0 0.1
2018-Feb-13 07:28N 34°38' E 135°25'2 3.6
2018-Feb-13 07:00N 34°36' E 135°24'254.6 270 / 171021.4 4.9-2.8
2018-Feb-13 06:58N 34°38' E 135°25'0 0.0
2018-Feb-13 06:28N 34°38' E 135°25'2 3.6
2018-Feb-13 06:00N 34°36' E 135°24'263.9 280 / 211020.9 4.0-4.5
2018-Feb-13 05:58N 34°38' E 135°25'0 0.0
2018-Feb-13 05:25N 34°38' E 135°25'2 4.0
2018-Feb-13 05:00N 34°36' E 135°24'256.3 280 / 221020.6 3.7-4.6
2018-Feb-13 04:58N 34°38' E 135°25'0 0.0
2018-Feb-13 04:28N 34°38' E 135°25'2 3.6
2018-Feb-13 04:00N 34°36' E 135°24'221.6 270 / 221020.9 3.2-4.8
2018-Feb-13 03:55N 34°38' E 135°25'0 0.0
2018-Feb-13 03:28N 34°38' E 135°25'2 3.6
2018-Feb-13 03:00N 34°36' E 135°24'253.4 270 / 191021.7 2.7-4.7
2018-Feb-13 02:58N 34°38' E 135°25'0 0.0
2018-Feb-13 02:28N 34°38' E 135°25'2 3.6
2018-Feb-13 02:00N 34°36' E 135°24'262.7 270 / 231021.7 2.5-5.4
2018-Feb-13 01:58N 34°38' E 135°25'0 0.1
2018-Feb-13 01:28N 34°38' E 135°25'2 3.6
2018-Feb-13 01:00N 34°36' E 135°24'261.4 280 / 231021.8 3.1-5.6
2018-Feb-13 00:58N 34°38' E 135°25'0 0.1
2018-Feb-13 00:28N 34°38' E 135°25'2 3.6
2018-Feb-13 00:00N 34°36' E 135°24'221.4 280 / 211021.3 4.3-5.3
2018-Feb-12 23:55N 34°38' E 135°25'0 0.1
2018-Feb-12 23:28N 34°38' E 135°25'2 3.6
2018-Feb-12 23:00N 34°36' E 135°24'259.0 280 / 191020.6 4.7-3.7
2018-Feb-12 22:58N 34°38' E 135°25'0 0.1
2018-Feb-12 22:28N 34°38' E 135°25'0 0.4
2018-Feb-12 22:00N 34°37' E 135°25'2102.2
2018-Feb-12 22:00N 34°36' E 135°24'2 4.8 280 / 161019.8 3.1-3.5
2018-Feb-12 21:30N 34°37' E 135°21'4 8.8
2018-Feb-12 21:00N 34°34' E 135°18'2134.4
2018-Feb-12 21:00N 34°36' E 135°18'918.5 250 / 121019.4 2.1-2.3
2018-Feb-12 20:31N 34°29' E 135°11'815.7
2018-Feb-12 20:01N 34°23' E 135°05'815.4
2018-Feb-12 19:30N 34°17' E 134°59'714.3
2018-Feb-12 19:00N 34°10' E 134°60'5420.4
2018-Feb-12 19:00N 34°12' E 134°54'918.2 210 / 71018.5 3.0-0.6
2018-Feb-12 18:31N 34°04' E 134°59'714.3
2018-Feb-12 18:00N 33°57' E 134°58'4621.6
2018-Feb-12 18:00N 33°54' E 134°54'5 9.3 330 / 241017.6 3.0-2.5
2018-Feb-12 17:30N 33°50' E 134°57'917.1
2018-Feb-12 17:00N 33°42' E 134°54'1211.7 020 / 71018.0 3.5-4.1
2018-Feb-12 16:00N 33°36' E 134°42'1615.6 240 / 131018.2 4.8-7.2
2018-Feb-12 15:00N 33°24' E 134°30'1615.6 270 / 91018.8 4.4-5.5
2018-Feb-12 14:00N 33°12' E 134°18'1616.2 250 / 141019.1 5.2-3.4
2018-Feb-12 13:00N 33°06' E 134°00'1615.7 280 / 171019.8 5.1-3.1
2018-Feb-12 12:00N 32°54' E 133°48'1616.3 270 / 161019.7 5.0-2.9
2018-Feb-12 11:00N 32°48' E 133°30'1211.7 280 / 121019.6 5.4-2.3
2018-Feb-12 10:00N 32°42' E 133°18'5 5.0 310 / 111019.4 5.4-3.1
2018-Feb-12 09:00N 32°42' E 133°12'0 0.0 310 / 71019.2 6.1-4.5
2018-Feb-12 08:00N 32°42' E 133°12'1616.3 290 / 131018.7 6.3-5.4
2018-Feb-12 07:00N 32°36' E 132°54'1515.2 300 / 201018.7 5.9-2.8
2018-Feb-12 06:00N 32°36' E 132°36'1010.1 300 / 161018.9 6.3-3.9
2018-Feb-12 05:00N 32°36' E 132°24'1615.7 290 / 141019.6 6.9-5.4
2018-Feb-12 04:00N 32°48' E 132°12'1212.9 280 / 221020.4 6.0-6.4
2018-Feb-12 03:02N 33°00' E 132°10'240.6
2018-Feb-12 03:00N 33°00' E 132°12'377.8 290 / 191021.2 4.9-5.3
2018-Feb-12 02:57N 33°01' E 132°09'1313.8
2018-Feb-12 02:00N 33°12' E 132°00'25634.7 280 / 231022.2 4.0-3.9
2018-Feb-12 01:59N 33°12' E 132°02'611.8
2018-Feb-12 01:30N 33°18' E 131°59'714.8
2018-Feb-12 01:01N 33°24' E 131°55'166.1
2018-Feb-12 01:00N 33°24' E 131°54'815.6 270 / 161022.1 2.4-3.2
2018-Feb-12 00:30N 33°31' E 131°51'815.4
2018-Feb-12 00:00N 33°38' E 131°47'2138.4
2018-Feb-12 00:00N 33°36' E 131°48'919.4 230 / 191021.5 2.1-2.2
2018-Feb-11 23:30N 33°45' E 131°43'714.7
2018-Feb-11 23:00N 33°47' E 131°35'815.1
2018-Feb-11 22:30N 33°48' E 131°26'714.9
2018-Feb-11 22:00N 33°50' E 131°17'714.6
2018-Feb-11 21:30N 33°53' E 131°09'713.9
2018-Feb-11 21:00N 33°57' E 131°02'4 8.8
2018-Feb-11 20:30N 33°57' E 130°57'4 8.8
2018-Feb-11 20:00N 33°56' E 130°52'4 7.8
2018-Feb-11 19:31N 34°00' E 130°52'5 9.5
2018-Feb-11 19:00N 34°03' E 130°47'3193.5
2018-Feb-11 19:00N 34°06' E 130°48'611.5 280 / 301020.9 3.2-5.2
2018-Feb-11 18:30N 34°06' E 130°41'713.6
2018-Feb-11 18:00N 34°11' E 130°35'186.9
2018-Feb-11 18:00N 34°12' E 130°36'714.1 280 / 281021.2 3.0-8.2
2018-Feb-11 17:30N 34°16' E 130°29'714.5
2018-Feb-11 17:00N 34°22' E 130°24'2127.6
2018-Feb-11 17:00N 34°24' E 130°24'1615.5 270 / 261020.8 2.5-10.5
2018-Feb-11 16:00N 34°36' E 130°12'5 4.9 290 / 261021.3 2.3-8.4
2018-Feb-11 15:00N 34°36' E 130°06'8 7.8 300 / 211021.1 1.6-9.7
2018-Feb-11 14:00N 34°42' E 130°00'5 4.9 310 / 111021.0 2.2-6.4
2018-Feb-11 13:00N 34°42' E 129°54'0 0.0 290 / 111020.7 1.9-4.9
2018-Feb-11 12:00N 34°42' E 129°54'0 0.0 270 / 111020.5 2.4-7.1
2018-Feb-11 11:00N 34°42' E 129°54'0 0.0 270 / 121020.5 2.6-9.2
2018-Feb-11 10:00N 34°42' E 129°54'3913.0 290 / 161020.3 3.1-10.6
2018-Feb-11 07:00N 35°00' E 129°12'8 7.8 270 / 191020.8 2.1-14.1
2018-Feb-11 06:00N 35°06' E 129°06'0 0.0 300 / 131020.7 1.6-15.5
2018-Feb-11 05:00N 35°06' E 129°06'0 0.0 270 / 101021.2 1.4-14.3
2018-Feb-11 04:00N 35°06' E 129°06'0 0.0 260 / 91022.2 0.3-10.9
2018-Feb-11 03:00N 35°06' E 129°06'0 0.0 260 / 61023.6 -0.1-10.3
2018-Feb-11 02:00N 35°06' E 129°06'0 0.0 270 / 61024.2 -0.6-11.6
2018-Feb-11 01:00N 35°06' E 129°06'0 0.0 270 / 41024.3 -1.1-11.8
2018-Feb-11 00:00N 35°06' E 129°06'0 0.0 270 / 21024.6 -2.0-12.7
2018-Feb-10 23:00N 35°06' E 129°06'0 0.0 300 / 41024.5 -2.8-12.9
2018-Feb-10 22:00N 35°06' E 129°06'0 0.0 300 / 51024.0 -3.1-13.8
2018-Feb-10 21:00N 35°06' E 129°06'0 0.0 300 / 51023.7 -2.7-13.8
2018-Feb-10 20:00N 35°06' E 129°06'0 0.0 320 / 81023.1 -2.8-15.2
2018-Feb-10 19:00N 35°06' E 129°06'0 0.0 310 / 121022.8 -2.3-15.4
2018-Feb-10 18:00N 35°06' E 129°06'0 0.0 310 / 151022.5 -1.7-15.4
2018-Feb-10 17:00N 35°06' E 129°06'0 0.0 320 / 211021.6 -0.7-17.6
2018-Feb-10 16:00N 35°06' E 129°06'6 6.0 310 / 211020.1 1.3-16.0
2018-Feb-10 15:00N 35°00' E 129°06'1211.5 300 / 191019.9 2.3-13.8
2018-Feb-10 14:00N 35°06' E 128°54'0 0.0 310 / 91018.7 6.0-10.3
2018-Feb-10 13:00N 35°06' E 128°54'0 0.0 320 / 51018.3 6.3-8.5
2018-Feb-10 12:00N 35°06' E 128°54'0 0.0 320 / 31018.0 7.0-8.2
2018-Feb-10 11:00N 35°06' E 128°54'0 0.0 320 / 41017.3 9.1-8.4
2018-Feb-10 10:00N 35°06' E 128°54'0 0.0 310 / 31016.9 9.8-8.7
2018-Feb-10 09:00N 35°06' E 128°54'0 0.0 320 / 41016.2 10.2-9.1
2018-Feb-10 08:00N 35°06' E 128°54'0 0.0 240 / 41016.1 9.9-4.7
2018-Feb-10 07:00N 35°06' E 128°54'0 0.0 300 / 81016.1 11.7-4.6
2018-Feb-10 06:00N 35°06' E 128°54'0 0.0 320 / 61016.2 10.9-5.8
2018-Feb-10 05:00N 35°06' E 128°54'0 0.0 300 / 71016.9 10.2-5.7
2018-Feb-10 04:00N 35°06' E 128°54'0 0.0 320 / 51018.2 9.5-5.1
2018-Feb-10 03:00N 35°06' E 128°54'0 0.0 310 / 61019.5 8.9-3.2
2018-Feb-10 02:00N 35°06' E 128°54'0 0.0 300 / 51020.3 7.3-1.3
2018-Feb-10 01:00N 35°06' E 128°54'0 0.0 330 / 51020.4 6.5-1.8
2018-Feb-10 00:00N 35°06' E 128°54'0 0.0 330 / 71020.0 6.9-1.6
2018-Feb-09 23:00N 35°06' E 128°54'0 0.0 330 / 31019.9 6.5-2.1
2018-Feb-09 22:00N 35°06' E 128°54'0 0.0 320 / 21020.1 7.2-0.7
2018-Feb-09 21:00N 35°06' E 128°54'0 0.0 290 / 31020.0 7.6-0.5
2018-Feb-09 20:00N 35°06' E 128°54'0 0.0 290 / 11020.0 8.1-0.1
2018-Feb-09 19:00N 35°06' E 128°54'   280 / 41020.6 7.9-0.5

Dump ship's entire track history